Time;durP1;ratioP1;P1;durP2;ratioP2;P2;SDS_P1;SDS_P2;PMS_P1;PMS_P2;Temp;Humidity;BMP_temperature;BMP_pressure;BME280_temperature;BME280_humidity;BME280_pressure;Samples;Min_cycle;Max_cycle;Signal;HPM_P1;HPM_P2
2024/04/10 00:02:19;;;;;;;60.37;2.67;;;;;;;;;;5488842;26;20469;-70
2024/04/10 00:04:48;;;;;;;56.77;3.20;;;;;;;;;;5488850;26;20466;-70
2024/04/10 00:07:17;;;;;;;57.70;2.87;;;;;;;;;;5489721;26;20485;-70
2024/04/10 00:09:46;;;;;;;57.67;2.80;;;;;;;;;;5488061;26;20822;-70
2024/04/10 00:12:12;;;;;;;57.00;2.70;;;;;;;;;;5487991;26;20580;-70
2024/04/10 00:14:41;;;;;;;57.10;2.83;;;;;;;;;;5487882;26;20563;-70
2024/04/10 00:17:07;;;;;;;58.90;2.90;;;;;;;;;;5488488;26;20868;-70
2024/04/10 00:19:35;;;;;;;56.77;2.90;;;;;;;;;;5488879;26;20891;-70
2024/04/10 00:22:03;;;;;;;59.40;2.73;;;;;;;;;;5489695;26;20719;-71
2024/04/10 00:24:35;;;;;;;57.80;2.40;;;;;;;;;;5492082;26;20466;-71
2024/04/10 00:27:01;;;;;;;61.30;2.83;;;;;;;;;;5492743;26;20561;-70
2024/04/10 00:29:29;;;;;;;57.03;2.90;;;;;;;;;;5492585;26;20533;-71
2024/04/10 00:31:57;;;;;;;56.90;2.90;;;;;;;;;;5492441;26;20517;-71
2024/04/10 00:34:26;;;;;;;56.67;2.60;;;;;;;;;;5492472;26;20469;-71
2024/04/10 00:36:52;;;;;;;58.07;2.67;;;;;;;;;;5493195;26;20490;-71
2024/04/10 00:39:20;;;;;;;58.27;2.90;;;;;;;;;;5493173;26;20847;-69
2024/04/10 00:41:49;;;;;;;57.53;2.83;;;;;;;;;;5492731;26;20481;-71
2024/04/10 00:44:18;;;;;;;56.70;2.47;;;;;;;;;;5492709;26;20876;-71
2024/04/10 00:46:44;;;;;;;56.80;2.60;;;;;;;;;;5492341;26;20592;-69
2024/04/10 00:49:13;;;;;;;56.63;2.30;;;;;;;;;;5492514;26;20543;-70
2024/04/10 00:51:39;;;;;;;59.60;2.67;;;;;;;;;;5492421;26;20568;-70
2024/04/10 00:54:09;;;;;;;59.03;3.13;;;;;;;;;;5493613;26;20997;-70
2024/04/10 00:56:35;;;;;;;56.30;2.83;;;;;;;;;;5493000;26;20830;-70
2024/04/10 00:59:06;;;;;;;60.90;2.80;;;;;;;;;;5493002;26;20525;-70
2024/04/10 01:01:33;;;;;;;57.80;2.90;;;;;;;;;;5492582;26;20473;-69
2024/04/10 01:04:01;;;;;;;56.80;2.57;;;;;;;;;;5492819;26;20474;-69
2024/04/10 01:06:29;;;;;;;57.20;2.97;;;;;;;;;;5492215;26;20514;-70
2024/04/10 01:08:58;;;;;;;57.20;2.90;;;;;;;;;;5507587;26;20530;-69
2024/04/10 01:11:26;;;;;;;60.30;2.60;;;;;;;;;;5492433;26;20522;-70
2024/04/10 01:13:53;;;;;;;56.57;2.60;;;;;;;;;;5492588;26;20870;-72
2024/04/10 01:16:24;;;;;;;57.50;3.57;;;;;;;;;;5492197;26;20465;-71
2024/04/10 01:18:50;;;;;;;57.80;2.60;;;;;;;;;;5492397;26;20911;-71
2024/04/10 01:21:19;;;;;;;56.87;2.70;;;;;;;;;;5492294;26;20478;-71
2024/04/10 01:23:48;;;;;;;57.83;2.70;;;;;;;;;;5493409;26;20474;-71
2024/04/10 01:26:16;;;;;;;58.60;2.97;;;;;;;;;;5492833;26;20465;-71
2024/04/10 01:28:43;;;;;;;57.20;2.87;;;;;;;;;;5492188;26;20583;-71
2024/04/10 01:31:11;;;;;;;58.10;2.77;;;;;;;;;;5492310;26;20462;-71
2024/04/10 01:33:37;;;;;;;56.37;2.80;;;;;;;;;;5491069;26;20910;-71
2024/04/10 01:36:07;;;;;;;56.80;2.70;;;;;;;;;;5492544;26;21096;-71
2024/04/10 01:38:33;;;;;;;57.20;2.53;;;;;;;;;;5492388;26;20494;-71
2024/04/10 01:41:05;;;;;;;57.20;3.30;;;;;;;;;;5491231;26;20520;-70
2024/04/10 01:43:31;;;;;;;59.07;3.43;;;;;;;;;;5491988;26;20526;-71
2024/04/10 01:46:00;;;;;;;56.33;2.73;;;;;;;;;;5492727;26;20575;-71
2024/04/10 01:48:26;;;;;;;57.20;3.07;;;;;;;;;;5503950;25;20480;-71
2024/04/10 01:50:54;;;;;;;58.27;2.90;;;;;;;;;;5528464;26;20531;-71
2024/04/10 01:53:21;;;;;;;58.87;2.80;;;;;;;;;;5516576;26;20932;-72
2024/04/10 01:55:49;;;;;;;56.30;2.70;;;;;;;;;;5492444;26;20474;-71
2024/04/10 01:58:18;;;;;;;62.00;3.07;;;;;;;;;;5492585;26;20632;-71
2024/04/10 02:00:47;;;;;;;57.00;2.73;;;;;;;;;;5491549;26;20515;-71
2024/04/10 02:03:13;;;;;;;57.20;3.30;;;;;;;;;;5492905;26;20474;-71
2024/04/10 02:05:42;;;;;;;57.00;2.70;;;;;;;;;;5492550;26;20474;-71
2024/04/10 02:08:08;;;;;;;58.60;3.10;;;;;;;;;;5492147;26;20489;-71
2024/04/10 02:10:37;;;;;;;57.30;3.20;;;;;;;;;;5492193;26;20848;-71
2024/04/10 02:13:03;;;;;;;57.37;4.00;;;;;;;;;;5491594;26;20490;-71
2024/04/10 02:15:34;;;;;;;61.17;3.37;;;;;;;;;;5492346;26;20517;-71
2024/04/10 02:18:01;;;;;;;57.43;3.00;;;;;;;;;;5492610;26;20591;-71
2024/04/10 02:20:29;;;;;;;57.00;2.70;;;;;;;;;;5492473;26;20467;-71
2024/04/10 02:22:55;;;;;;;60.20;3.30;;;;;;;;;;5491001;26;20588;-71
2024/04/10 02:25:24;;;;;;;57.07;3.20;;;;;;;;;;5492162;26;20466;-71
2024/04/10 02:27:51;;;;;;;61.07;3.17;;;;;;;;;;5492085;26;20882;-70
2024/04/10 02:30:19;;;;;;;57.53;3.10;;;;;;;;;;5491754;26;20591;-71
2024/04/10 02:32:49;;;;;;;57.07;2.60;;;;;;;;;;5491323;26;21170;-71
2024/04/10 02:35:18;;;;;;;57.07;3.00;;;;;;;;;;5491588;26;20470;-71
2024/04/10 02:37:44;;;;;;;59.43;3.20;;;;;;;;;;5490299;26;20575;-72
2024/04/10 02:40:13;;;;;;;57.17;3.37;;;;;;;;;;5489987;26;20474;-71
2024/04/10 02:42:45;;;;;;;56.90;3.40;;;;;;;;;;5488904;26;20542;-70
2024/04/10 02:45:14;;;;;;;58.63;3.70;;;;;;;;;;5488753;26;20529;-70
2024/04/10 02:47:40;;;;;;;57.10;3.13;;;;;;;;;;5489323;26;20588;-70
2024/04/10 02:50:11;;;;;;;57.07;3.10;;;;;;;;;;5488892;26;20814;-70
2024/04/10 02:52:38;;;;;;;56.60;3.20;;;;;;;;;;5489182;26;20482;-71
2024/04/10 02:55:07;;;;;;;57.37;3.60;;;;;;;;;;5489777;26;20474;-70
2024/04/10 02:57:33;;;;;;;58.60;3.70;;;;;;;;;;5490051;26;20478;-70
2024/04/10 03:00:03;;;;;;;57.50;3.00;;;;;;;;;;5489888;26;20478;-70
2024/04/10 03:02:32;;;;;;;58.60;3.30;;;;;;;;;;5489840;26;21018;-70
2024/04/10 03:05:01;;;;;;;57.47;3.60;;;;;;;;;;5509899;26;20590;-70
2024/04/10 03:07:30;;;;;;;62.27;3.30;;;;;;;;;;5525215;26;21117;-70
2024/04/10 03:09:58;;;;;;;56.40;3.10;;;;;;;;;;5524759;25;20545;-70
2024/04/10 03:12:26;;;;;;;56.90;3.33;;;;;;;;;;5524394;26;20548;-70
2024/04/10 03:14:55;;;;;;;59.00;3.30;;;;;;;;;;5524589;26;20593;-70
2024/04/10 03:17:21;;;;;;;61.03;3.20;;;;;;;;;;5525241;26;21109;-70
2024/04/10 03:19:50;;;;;;;57.77;3.40;;;;;;;;;;5507376;25;20538;-70
2024/04/10 03:22:16;;;;;;;57.57;3.70;;;;;;;;;;5487224;26;20600;-70
2024/04/10 03:24:48;;;;;;;56.70;3.27;;;;;;;;;;5487633;26;20478;-70
2024/04/10 03:27:14;;;;;;;56.60;3.10;;;;;;;;;;5488074;26;20589;-70
2024/04/10 03:29:43;;;;;;;58.70;3.10;;;;;;;;;;5487703;26;20538;-70
2024/04/10 03:32:09;;;;;;;56.60;2.90;;;;;;;;;;5487399;26;20553;-70
2024/04/10 03:34:38;;;;;;;57.90;3.37;;;;;;;;;;5487455;26;20518;-71
2024/04/10 03:37:04;;;;;;;59.60;3.63;;;;;;;;;;5487698;26;20578;-70
2024/04/10 03:39:33;;;;;;;58.57;3.50;;;;;;;;;;5487831;26;20474;-71
2024/04/10 03:42:02;;;;;;;58.23;3.20;;;;;;;;;;5487324;26;20959;-72
2024/04/10 03:44:31;;;;;;;63.60;3.30;;;;;;;;;;5487477;26;20470;-71
2024/04/10 03:46:59;;;;;;;57.10;2.87;;;;;;;;;;5487633;26;20519;-71
2024/04/10 03:49:28;;;;;;;58.70;3.13;;;;;;;;;;5487426;26;20537;-70
2024/04/10 03:51:54;;;;;;;57.07;2.70;;;;;;;;;;5486829;26;20961;-71
2024/04/10 03:54:23;;;;;;;57.10;3.23;;;;;;;;;;5487214;26;20478;-70
2024/04/10 03:56:49;;;;;;;60.03;2.80;;;;;;;;;;5486373;26;20474;-71
2024/04/10 03:59:21;;;;;;;59.43;3.10;;;;;;;;;;5487361;26;21103;-71
2024/04/10 04:01:47;;;;;;;58.50;2.70;;;;;;;;;;5487391;26;20592;-71
2024/04/10 04:04:16;;;;;;;56.80;2.60;;;;;;;;;;5487088;26;20587;-71
2024/04/10 04:06:44;;;;;;;57.90;2.90;;;;;;;;;;5487183;26;20623;-71
2024/04/10 04:09:13;;;;;;;57.87;3.07;;;;;;;;;;5487183;26;20652;-70
2024/04/10 04:11:39;;;;;;;57.30;2.77;;;;;;;;;;5486812;26;20518;-70
2024/04/10 04:14:08;;;;;;;60.60;3.60;;;;;;;;;;5487191;26;20526;-70
2024/04/10 04:16:36;;;;;;;57.47;3.07;;;;;;;;;;5487082;26;20546;-71
2024/04/10 04:19:05;;;;;;;58.77;3.17;;;;;;;;;;5486844;26;20526;-71
2024/04/10 04:21:31;;;;;;;56.23;2.80;;;;;;;;;;5486832;26;20482;-71
2024/04/10 04:24:01;;;;;;;57.70;2.90;;;;;;;;;;5486997;26;20462;-70
2024/04/10 04:26:27;;;;;;;59.63;3.30;;;;;;;;;;5487650;26;20470;-70
2024/04/10 04:28:56;;;;;;;58.63;2.93;;;;;;;;;;5486780;26;20485;-70
2024/04/10 04:31:22;;;;;;;62.13;3.00;;;;;;;;;;5486765;26;20726;-71
2024/04/10 04:33:54;;;;;;;58.13;3.10;;;;;;;;;;5486855;26;20595;-71
2024/04/10 04:36:20;;;;;;;56.63;2.60;;;;;;;;;;5487183;26;20520;-71
2024/04/10 04:38:49;;;;;;;58.37;3.03;;;;;;;;;;5487083;26;21017;-71
2024/04/10 04:41:15;;;;;;;57.80;2.57;;;;;;;;;;5486863;26;20470;-72
2024/04/10 04:43:44;;;;;;;56.40;2.60;;;;;;;;;;5486534;26;20927;-71
2024/04/10 04:46:11;;;;;;;58.27;2.83;;;;;;;;;;5486918;26;20580;-71
2024/04/10 04:48:40;;;;;;;57.60;3.20;;;;;;;;;;5486711;26;20853;-71
2024/04/10 04:51:10;;;;;;;59.70;2.60;;;;;;;;;;5486335;26;20537;-71
2024/04/10 04:53:39;;;;;;;57.77;2.87;;;;;;;;;;5486901;26;20543;-72
2024/04/10 04:56:05;;;;;;;64.80;2.90;;;;;;;;;;5486958;26;20470;-70
2024/04/10 04:58:34;;;;;;;56.20;2.40;;;;;;;;;;5486993;26;20545;-71
2024/04/10 05:01:00;;;;;;;60.77;3.07;;;;;;;;;;5487008;26;20584;-72
2024/04/10 05:06:28;;;;;;;57.50;2.70;;;;;;;;;;5396315;26;20928;-72
2024/04/10 05:08:58;;;;;;;59.53;2.97;;;;;;;;;;5477775;26;20480;-71
2024/04/10 05:11:26;;;;;;;56.93;3.00;;;;;;;;;;5526217;26;20528;-71
2024/04/10 05:13:52;;;;;;;59.40;3.00;;;;;;;;;;5526331;26;20468;-71
2024/04/10 05:16:21;;;;;;;59.13;3.20;;;;;;;;;;5526832;26;20549;-71
2024/04/10 05:18:47;;;;;;;58.90;2.97;;;;;;;;;;5527108;25;20593;-71
2024/04/10 05:21:16;;;;;;;59.70;3.00;;;;;;;;;;5526403;26;20537;-69
2024/04/10 05:23:46;;;;;;;57.20;3.20;;;;;;;;;;5526770;26;20481;-69
2024/04/10 05:26:15;;;;;;;57.27;2.87;;;;;;;;;;5526693;26;20468;-70
2024/04/10 05:28:42;;;;;;;57.60;2.87;;;;;;;;;;5527199;25;21027;-70
2024/04/10 05:31:11;;;;;;;57.37;2.93;;;;;;;;;;5526179;26;20913;-70
2024/04/10 05:33:38;;;;;;;65.53;3.17;;;;;;;;;;5527083;26;20974;-70
2024/04/10 05:36:07;;;;;;;58.20;3.33;;;;;;;;;;5527027;26;20460;-71
2024/04/10 05:38:33;;;;;;;62.07;4.57;;;;;;;;;;5527471;25;20484;-71
2024/04/10 05:41:05;;;;;;;56.50;2.73;;;;;;;;;;5526426;26;20470;-71
2024/04/10 05:43:31;;;;;;;59.00;3.13;;;;;;;;;;5526872;26;20605;-71
2024/04/10 05:46:00;;;;;;;57.93;2.80;;;;;;;;;;5526917;26;20528;-71
2024/04/10 05:48:26;;;;;;;57.63;2.90;;;;;;;;;;5526876;25;20533;-71
2024/04/10 05:50:59;;;;;;;57.07;3.20;;;;;;;;;;5526632;26;20529;-70
2024/04/10 05:53:25;;;;;;;58.00;2.90;;;;;;;;;;5528306;26;20510;-71
2024/04/10 05:55:54;;;;;;;59.30;3.27;;;;;;;;;;5527604;26;20469;-71
2024/04/10 05:58:23;;;;;;;57.93;2.70;;;;;;;;;;5527625;25;20484;-71
2024/04/10 06:00:52;;;;;;;60.47;3.47;;;;;;;;;;5527121;26;20452;-71
2024/04/10 06:03:18;;;;;;;56.80;2.80;;;;;;;;;;5526634;26;20460;-71
2024/04/10 06:05:47;;;;;;;57.80;2.80;;;;;;;;;;5526981;26;20950;-71
2024/04/10 06:08:13;;;;;;;59.27;2.83;;;;;;;;;;5526998;25;20520;-72
2024/04/10 06:10:42;;;;;;;59.37;3.20;;;;;;;;;;5527633;26;20476;-71
2024/04/10 06:13:08;;;;;;;57.13;2.73;;;;;;;;;;5527699;26;20521;-71
2024/04/10 06:15:39;;;;;;;59.80;3.27;;;;;;;;;;5526083;26;20559;-70
2024/04/10 06:18:06;;;;;;;57.23;2.80;;;;;;;;;;5525818;25;20831;-71
2024/04/10 06:20:36;;;;;;;57.87;2.90;;;;;;;;;;5525770;26;20532;-71
2024/04/10 06:23:03;;;;;;;57.80;3.00;;;;;;;;;;5525499;26;20473;-70
2024/04/10 06:25:31;;;;;;;58.37;2.73;;;;;;;;;;5525876;26;20798;-70
2024/04/10 06:27:57;;;;;;;56.67;3.30;;;;;;;;;;5506965;26;20487;-70
2024/04/10 06:30:28;;;;;;;57.70;2.77;;;;;;;;;;5489341;26;20477;-71
2024/04/10 06:32:56;;;;;;;58.27;2.83;;;;;;;;;;5488287;26;20579;-71
2024/04/10 06:35:25;;;;;;;59.10;2.77;;;;;;;;;;5489037;26;20470;-71
2024/04/10 06:37:51;;;;;;;59.13;2.90;;;;;;;;;;5489685;26;20466;-70
2024/04/10 06:40:20;;;;;;;60.20;3.20;;;;;;;;;;5491063;26;20669;-71
2024/04/10 06:42:46;;;;;;;59.93;3.43;;;;;;;;;;5489532;26;20874;-71
2024/04/10 06:45:15;;;;;;;57.60;2.73;;;;;;;;;;5527395;26;20891;-71
2024/04/10 06:47:41;;;;;;;57.53;2.63;;;;;;;;;;5527689;26;20517;-69
2024/04/10 06:50:12;;;;;;;58.47;2.93;;;;;;;;;;5526419;25;20540;-70
2024/04/10 06:52:39;;;;;;;58.30;3.00;;;;;;;;;;5525465;26;20473;-70
2024/04/10 06:55:08;;;;;;;62.50;3.47;;;;;;;;;;5525727;26;20852;-70
2024/04/10 06:57:35;;;;;;;62.90;4.87;;;;;;;;;;5526202;26;20568;-70
2024/04/10 07:00:12;;;;;;;58.07;3.00;;;;;;;;;;5525386;25;20520;-71
2024/04/10 07:02:39;;;;;;;58.47;2.80;;;;;;;;;;5525352;26;20517;-70
2024/04/10 07:05:09;;;;;;;58.97;3.43;;;;;;;;;;5526100;26;20581;-70
2024/04/10 07:07:38;;;;;;;57.80;3.20;;;;;;;;;;5526380;26;20516;-70
2024/04/10 07:10:09;;;;;;;59.30;3.13;;;;;;;;;;5527024;25;20464;-70
2024/04/10 07:12:35;;;;;;;59.30;2.87;;;;;;;;;;5526145;26;20465;-71
2024/04/10 07:15:04;;;;;;;58.67;3.00;;;;;;;;;;5527273;26;20473;-70
2024/04/10 07:17:30;;;;;;;59.90;2.90;;;;;;;;;;5527625;26;20504;-70
2024/04/10 07:19:59;;;;;;;60.63;2.97;;;;;;;;;;5527590;25;20580;-71
2024/04/10 07:22:26;;;;;;;62.33;2.80;;;;;;;;;;5526671;26;20825;-71
2024/04/10 07:24:57;;;;;;;63.80;2.83;;;;;;;;;;5526787;26;20476;-70
2024/04/10 07:27:23;;;;;;;62.20;3.00;;;;;;;;;;5527689;26;20476;-70
2024/04/10 07:29:54;;;;;;;60.30;2.90;;;;;;;;;;5525686;25;20476;-70
2024/04/10 07:32:20;;;;;;;59.90;4.17;;;;;;;;;;5523254;26;20469;-70
2024/04/10 07:34:49;;;;;;;62.57;2.60;;;;;;;;;;5524514;26;20476;-70
2024/04/10 07:37:15;;;;;;;57.77;2.80;;;;;;;;;;5524876;26;20519;-70
2024/04/10 07:39:44;;;;;;;59.00;2.73;;;;;;;;;;5524970;25;20539;-71
2024/04/10 07:42:12;;;;;;;63.00;2.87;;;;;;;;;;5524711;26;20894;-71
2024/04/10 07:44:41;;;;;;;61.50;3.60;;;;;;;;;;5519181;26;20465;-69
2024/04/10 07:47:07;;;;;;;57.77;2.70;;;;;;;;;;5520222;26;20465;-70
2024/04/10 07:49:36;;;;;;;58.30;2.80;;;;;;;;;;5514636;26;20472;-70
2024/04/10 07:53:37;;;;;;;63.13;3.70;;;;;;;;;;5506956;25;20592;-71
2024/04/10 07:56:03;;;;;;;58.27;2.77;;;;;;;;;;5507235;25;20484;-69
2024/04/10 07:58:33;;;;;;;58.90;2.73;;;;;;;;;;5507411;25;20473;-70
2024/04/10 08:01:00;;;;;;;57.20;2.80;;;;;;;;;;5507055;25;20474;-69
2024/04/10 08:03:29;;;;;;;58.43;2.90;;;;;;;;;;5507691;25;20801;-70
2024/04/10 08:05:56;;;;;;;58.30;3.17;;;;;;;;;;5507185;25;20473;-70
2024/04/10 08:08:25;;;;;;;58.20;2.93;;;;;;;;;;5507513;25;20473;-70
2024/04/10 08:10:59;;;;;;;58.27;3.27;;;;;;;;;;5508949;25;20469;-70
2024/04/10 08:13:27;;;;;;;60.00;3.10;;;;;;;;;;5484744;26;20484;-71
2024/04/10 08:15:54;;;;;;;57.80;3.13;;;;;;;;;;5507657;25;20628;-71
2024/04/10 08:18:22;;;;;;;65.67;3.00;;;;;;;;;;5507440;25;20481;-71
2024/04/10 08:20:57;;;;;;;62.03;3.03;;;;;;;;;;5506925;25;21126;-72
2024/04/10 08:23:26;;;;;;;61.33;3.43;;;;;;;;;;5507108;25;21043;-71
2024/04/10 08:25:52;;;;;;;61.93;3.00;;;;;;;;;;5507391;25;20465;-71
2024/04/10 08:28:24;;;;;;;65.57;3.37;;;;;;;;;;5507086;25;20537;-71
2024/04/10 08:30:51;;;;;;;60.37;3.60;;;;;;;;;;5507053;25;21060;-71
2024/04/10 08:33:20;;;;;;;58.43;2.90;;;;;;;;;;5456020;26;20475;-70
2024/04/10 08:35:51;;;;;;;64.63;4.00;;;;;;;;;;5470725;26;20494;-71
2024/04/10 08:38:20;;;;;;;61.00;3.30;;;;;;;;;;5455983;26;20540;-71
2024/04/10 08:40:49;;;;;;;60.57;4.33;;;;;;;;;;5470338;26;20475;-71
2024/04/10 08:43:18;;;;;;;61.07;3.83;;;;;;;;;;5471144;26;20462;-72
2024/04/10 08:45:48;;;;;;;59.20;3.50;;;;;;;;;;5471321;26;20467;-72
2024/04/10 08:48:16;;;;;;;61.63;4.80;;;;;;;;;;5470976;26;20470;-71
2024/04/10 08:50:43;;;;;;;60.70;3.60;;;;;;;;;;5470783;26;20563;-71
2024/04/10 08:53:12;;;;;;;62.83;4.00;;;;;;;;;;5501407;26;20525;-70
2024/04/10 08:55:40;;;;;;;58.53;4.00;;;;;;;;;;5507020;26;20477;-70
2024/04/10 08:58:09;;;;;;;58.40;3.20;;;;;;;;;;5506582;26;20571;-69
2024/04/10 09:00:39;;;;;;;63.33;3.70;;;;;;;;;;5506108;26;20997;-68
2024/04/10 09:03:10;;;;;;;60.80;4.10;;;;;;;;;;5500082;26;20482;-71
2024/04/10 09:05:37;;;;;;;59.30;3.60;;;;;;;;;;5490876;26;20466;-70
2024/04/10 09:08:06;;;;;;;62.30;4.07;;;;;;;;;;5490400;26;20473;-70
2024/04/10 09:10:32;;;;;;;60.00;3.83;;;;;;;;;;5490608;26;20476;-71
2024/04/10 09:13:06;;;;;;;62.47;3.53;;;;;;;;;;5491189;26;20862;-70
2024/04/10 09:15:32;;;;;;;60.63;3.87;;;;;;;;;;5491599;26;20477;-69
2024/04/10 09:18:01;;;;;;;59.33;3.50;;;;;;;;;;5490769;26;20864;-70
2024/04/10 09:20:30;;;;;;;64.40;4.27;;;;;;;;;;5490917;26;20465;-70
2024/04/10 09:23:06;;;;;;;63.30;2.97;;;;;;;;;;5489841;26;20482;-70
2024/04/10 09:25:33;;;;;;;59.90;3.40;;;;;;;;;;5490475;26;20474;-70
2024/04/10 09:28:03;;;;;;;61.13;3.60;;;;;;;;;;5491033;26;20528;-71
2024/04/10 09:30:29;;;;;;;61.07;4.20;;;;;;;;;;5490942;26;20466;-71
2024/04/10 09:32:59;;;;;;;59.90;4.03;;;;;;;;;;5490298;26;20543;-70
2024/04/10 09:35:26;;;;;;;60.50;3.90;;;;;;;;;;5512818;26;20588;-71
2024/04/10 09:37:58;;;;;;;61.20;3.50;;;;;;;;;;5528173;26;20525;-72
2024/04/10 09:40:25;;;;;;;58.57;3.80;;;;;;;;;;5477270;26;20623;-71
2024/04/10 09:42:57;;;;;;;64.47;4.23;;;;;;;;;;5490540;26;20471;-72
2024/04/10 09:45:26;;;;;;;59.40;3.40;;;;;;;;;;5491199;26;20517;-71
2024/04/10 09:47:55;;;;;;;59.17;3.60;;;;;;;;;;5491451;26;20542;-71
2024/04/10 09:50:24;;;;;;;61.10;3.30;;;;;;;;;;5512727;26;20524;-71
2024/04/10 09:52:54;;;;;;;62.60;4.10;;;;;;;;;;5528366;26;20519;-71
2024/04/10 09:55:23;;;;;;;60.43;3.73;;;;;;;;;;5527747;26;20473;-71
2024/04/10 09:57:52;;;;;;;58.97;2.90;;;;;;;;;;5527873;26;20460;-71
2024/04/10 10:00:18;;;;;;;60.10;2.90;;;;;;;;;;5527536;26;21193;-72
2024/04/10 10:02:47;;;;;;;60.17;3.80;;;;;;;;;;5527671;26;20473;-71
2024/04/10 10:05:22;;;;;;;60.40;3.30;;;;;;;;;;5528339;26;20484;-69
2024/04/10 10:07:52;;;;;;;57.20;3.00;;;;;;;;;;5528286;26;20468;-70
2024/04/10 10:10:19;;;;;;;59.13;2.90;;;;;;;;;;5527916;26;20558;-70
2024/04/10 10:12:50;;;;;;;61.43;2.90;;;;;;;;;;5526205;26;20565;-70
2024/04/10 10:15:21;;;;;;;60.00;3.50;;;;;;;;;;5524984;26;20469;-70
2024/04/10 10:17:55;;;;;;;60.40;3.07;;;;;;;;;;5526807;26;20457;-70
2024/04/10 10:20:21;;;;;;;59.53;3.03;;;;;;;;;;5527091;26;20468;-70
2024/04/10 10:22:59;;;;;;;59.67;2.90;;;;;;;;;;5520642;26;20465;-71
2024/04/10 10:25:25;;;;;;;60.20;3.40;;;;;;;;;;5487124;26;20534;-71
2024/04/10 10:28:05;;;;;;;59.73;3.07;;;;;;;;;;5493659;26;20536;-71
2024/04/10 10:30:31;;;;;;;58.00;3.20;;;;;;;;;;5484194;26;20587;-70
2024/04/10 10:33:04;;;;;;;58.57;2.60;;;;;;;;;;5496045;26;20532;-70
2024/04/10 10:35:30;;;;;;;60.37;3.47;;;;;;;;;;5474980;26;20521;-71
2024/04/10 10:37:59;;;;;;;59.60;3.33;;;;;;;;;;5497618;26;21001;-71
2024/04/10 10:40:25;;;;;;;60.60;3.10;;;;;;;;;;5484822;26;21081;-71
2024/04/10 10:43:04;;;;;;;59.20;2.90;;;;;;;;;;5524130;26;21149;-71
2024/04/10 10:45:30;;;;;;;60.80;3.23;;;;;;;;;;5474783;26;21068;-71
2024/04/10 10:47:59;;;;;;;59.10;3.10;;;;;;;;;;5495202;26;20518;-72
2024/04/10 10:50:25;;;;;;;59.57;3.13;;;;;;;;;;5471244;26;20658;-71
2024/04/10 10:52:55;;;;;;;57.67;3.10;;;;;;;;;;5506147;26;20527;-69
2024/04/10 10:55:21;;;;;;;57.77;2.63;;;;;;;;;;5512149;26;21021;-71
2024/04/10 10:57:50;;;;;;;58.30;3.10;;;;;;;;;;5523851;26;20465;-70
2024/04/10 11:00:20;;;;;;;58.07;2.63;;;;;;;;;;5504990;26;20471;-71
2024/04/10 11:02:49;;;;;;;57.67;2.57;;;;;;;;;;5493679;26;20482;-71
2024/04/10 11:05:15;;;;;;;57.20;2.73;;;;;;;;;;5484278;26;20549;-71
2024/04/10 11:07:44;;;;;;;57.27;2.23;;;;;;;;;;5486555;26;20929;-71
2024/04/10 11:10:11;;;;;;;59.30;3.03;;;;;;;;;;5484642;26;20575;-70
2024/04/10 11:12:40;;;;;;;57.17;2.30;;;;;;;;;;5485771;26;20458;-70
2024/04/10 11:15:08;;;;;;;60.00;2.60;;;;;;;;;;5486149;26;20478;-70
2024/04/10 11:17:40;;;;;;;57.77;2.83;;;;;;;;;;5479284;26;20591;-70
2024/04/10 11:20:08;;;;;;;57.67;2.53;;;;;;;;;;5486537;26;20522;-71
2024/04/10 11:22:36;;;;;;;58.10;2.73;;;;;;;;;;5475058;26;20761;-70
2024/04/10 11:25:03;;;;;;;57.43;2.73;;;;;;;;;;5484669;26;20538;-70
2024/04/10 11:27:31;;;;;;;59.00;2.80;;;;;;;;;;5486464;26;20504;-71
2024/04/10 11:29:58;;;;;;;58.00;3.10;;;;;;;;;;5486424;26;20552;-70
2024/04/10 11:32:27;;;;;;;60.27;2.80;;;;;;;;;;5485707;26;20547;-71
2024/04/10 11:34:58;;;;;;;57.60;2.73;;;;;;;;;;5486078;26;20595;-70
2024/04/10 11:37:27;;;;;;;60.57;3.20;;;;;;;;;;5486513;26;20499;-71
2024/04/10 11:39:53;;;;;;;59.43;3.10;;;;;;;;;;5486105;26;20474;-71
2024/04/10 11:42:22;;;;;;;58.37;3.13;;;;;;;;;;5485898;26;20462;-70
2024/04/10 11:44:48;;;;;;;57.70;3.80;;;;;;;;;;5483784;26;20533;-71
2024/04/10 11:47:17;;;;;;;60.90;3.07;;;;;;;;;;5486524;26;20474;-70
2024/04/10 11:49:44;;;;;;;62.27;3.10;;;;;;;;;;5485768;26;20616;-70
2024/04/10 11:52:15;;;;;;;57.27;3.00;;;;;;;;;;5485521;26;20474;-70
2024/04/10 11:54:41;;;;;;;61.80;2.90;;;;;;;;;;5482045;26;20463;-71
2024/04/10 11:57:10;;;;;;;59.30;3.03;;;;;;;;;;5485463;26;21062;-70
2024/04/10 11:59:36;;;;;;;59.83;2.53;;;;;;;;;;5484021;26;20621;-71
2024/04/10 12:02:05;;;;;;;61.27;3.23;;;;;;;;;;5485138;26;20510;-71
2024/04/10 12:04:31;;;;;;;62.73;3.40;;;;;;;;;;5485999;26;20461;-71
2024/04/10 12:07:00;;;;;;;59.47;3.00;;;;;;;;;;5483311;26;20694;-71
2024/04/10 12:09:29;;;;;;;57.87;2.47;;;;;;;;;;5478895;26;20541;-71
2024/04/10 12:11:58;;;;;;;57.60;2.60;;;;;;;;;;5476399;26;20470;-70
2024/04/10 12:14:24;;;;;;;59.47;2.80;;;;;;;;;;5482611;26;20540;-71
2024/04/10 12:16:52;;;;;;;58.40;3.00;;;;;;;;;;5485669;26;20472;-71
2024/04/10 12:19:19;;;;;;;56.93;2.70;;;;;;;;;;5485372;26;20541;-71
2024/04/10 12:21:47;;;;;;;60.13;3.33;;;;;;;;;;5485210;26;20459;-71
2024/04/10 12:24:13;;;;;;;62.00;2.87;;;;;;;;;;5485408;26;20481;-70
2024/04/10 12:26:45;;;;;;;58.87;3.20;;;;;;;;;;5485355;26;20594;-71
2024/04/10 12:29:11;;;;;;;56.70;2.47;;;;;;;;;;5485506;26;20567;-71
2024/04/10 12:31:40;;;;;;;56.67;2.43;;;;;;;;;;5467899;26;20696;-70
2024/04/10 12:34:06;;;;;;;57.63;2.60;;;;;;;;;;5486241;26;20482;-70
2024/04/10 12:39:20;;;;;;;55.87;2.30;;;;;;;;;;5493174;26;20555;-71
2024/04/10 12:41:51;;;;;;;59.43;2.50;;;;;;;;;;5484235;26;20462;-71
2024/04/10 12:44:20;;;;;;;58.00;2.60;;;;;;;;;;5486049;26;20463;-70
2024/04/10 12:46:50;;;;;;;59.00;2.43;;;;;;;;;;5474438;26;20879;-71
2024/04/10 12:49:19;;;;;;;57.93;2.50;;;;;;;;;;5484990;26;20544;-71
2024/04/10 12:51:46;;;;;;;57.17;2.37;;;;;;;;;;5472619;26;20477;-71
2024/04/10 12:54:14;;;;;;;58.00;2.40;;;;;;;;;;5485297;26;21018;-71
2024/04/10 12:56:40;;;;;;;59.43;2.50;;;;;;;;;;5510385;26;20602;-71
2024/04/10 12:59:12;;;;;;;57.00;2.30;;;;;;;;;;5522533;26;20927;-71
2024/04/10 13:01:38;;;;;;;60.53;2.77;;;;;;;;;;5509811;26;20967;-70
2024/04/10 13:04:07;;;;;;;56.87;2.40;;;;;;;;;;5522364;26;20526;-71
2024/04/10 13:06:33;;;;;;;57.50;2.30;;;;;;;;;;5485122;26;20477;-71
2024/04/10 13:09:03;;;;;;;63.87;2.97;;;;;;;;;;5486471;26;20489;-71
2024/04/10 13:11:29;;;;;;;59.30;2.90;;;;;;;;;;5486760;26;20529;-70
2024/04/10 13:13:58;;;;;;;60.30;3.10;;;;;;;;;;5487872;26;20475;-70
2024/04/10 13:16:27;;;;;;;60.17;2.73;;;;;;;;;;5505951;26;20466;-70
2024/04/10 13:18:55;;;;;;;57.70;2.80;;;;;;;;;;5523488;26;20532;-72
2024/04/10 13:21:22;;;;;;;58.30;2.47;;;;;;;;;;5490914;26;21021;-70
2024/04/10 13:23:51;;;;;;;58.30;3.00;;;;;;;;;;5485687;26;20914;-70
2024/04/10 13:26:17;;;;;;;58.07;3.33;;;;;;;;;;5487588;26;20518;-71
2024/04/10 13:28:49;;;;;;;57.30;2.80;;;;;;;;;;5486781;26;20477;-70
2024/04/10 13:31:16;;;;;;;57.70;2.90;;;;;;;;;;5503963;26;20529;-71
2024/04/10 13:33:49;;;;;;;58.20;3.00;;;;;;;;;;5524080;26;20589;-70
2024/04/10 13:36:15;;;;;;;56.83;2.37;;;;;;;;;;5493234;26;20474;-70
2024/04/10 13:38:45;;;;;;;64.00;2.80;;;;;;;;;;5486839;26;20473;-71
2024/04/10 13:41:12;;;;;;;56.60;2.27;;;;;;;;;;5486556;26;20523;-70
2024/04/10 13:43:41;;;;;;;58.10;2.40;;;;;;;;;;5486092;26;20518;-70
2024/04/10 13:46:09;;;;;;;57.47;2.43;;;;;;;;;;5486330;26;21017;-70
2024/04/10 13:48:38;;;;;;;58.90;2.90;;;;;;;;;;5485519;26;20870;-70
2024/04/10 13:51:07;;;;;;;59.40;2.37;;;;;;;;;;5485650;26;20514;-70
2024/04/10 13:53:36;;;;;;;56.17;2.40;;;;;;;;;;5487066;26;20529;-70
2024/04/10 13:56:05;;;;;;;57.50;2.43;;;;;;;;;;5500412;26;20471;-71
2024/04/10 13:58:34;;;;;;;56.33;2.10;;;;;;;;;;5523081;26;20474;-71
2024/04/10 14:01:01;;;;;;;57.47;2.27;;;;;;;;;;5496110;26;20587;-71
2024/04/10 14:03:29;;;;;;;56.87;2.20;;;;;;;;;;5486300;26;20836;-71
2024/04/10 14:05:59;;;;;;;57.60;2.40;;;;;;;;;;5486813;26;20604;-71
2024/04/10 14:08:30;;;;;;;57.63;2.50;;;;;;;;;;5486790;26;20547;-71
2024/04/10 14:10:58;;;;;;;57.90;2.57;;;;;;;;;;5486245;26;20521;-71
2024/04/10 14:13:27;;;;;;;57.50;2.40;;;;;;;;;;5485480;26;20475;-71
2024/04/10 14:15:53;;;;;;;56.77;2.33;;;;;;;;;;5485118;26;20609;-71
2024/04/10 14:18:22;;;;;;;55.50;2.00;;;;;;;;;;5485749;26;20488;-71
2024/04/10 14:20:48;;;;;;;55.60;2.10;;;;;;;;;;5484761;26;20556;-71
2024/04/10 14:23:17;;;;;;;56.33;2.27;;;;;;;;;;5485388;26;20527;-71
2024/04/10 14:25:46;;;;;;;58.07;2.60;;;;;;;;;;5494386;26;20811;-71
2024/04/10 14:28:14;;;;;;;57.20;2.37;;;;;;;;;;5523713;26;20532;-70
2024/04/10 14:30:40;;;;;;;56.50;2.07;;;;;;;;;;5510402;26;20558;-71
2024/04/10 14:33:09;;;;;;;56.60;2.03;;;;;;;;;;5522963;26;20475;-71
2024/04/10 14:35:35;;;;;;;58.90;2.30;;;;;;;;;;5510230;26;20473;-71
2024/04/10 14:38:04;;;;;;;56.87;2.00;;;;;;;;;;5523637;26;20482;-71
2024/04/10 14:40:30;;;;;;;57.10;2.50;;;;;;;;;;5502433;26;20623;-70
2024/04/10 14:43:02;;;;;;;57.10;2.53;;;;;;;;;;5486214;26;20450;-71
2024/04/10 14:45:28;;;;;;;57.60;2.00;;;;;;;;;;5490435;26;20526;-70